createdAt,value
2019-03-21T01:12:48.747Z,43.22
2019-03-21T01:27:52.144Z,43.06
2019-03-21T02:27:06.280Z,43.74
2019-03-21T02:35:26.131Z,44.28
2019-03-21T02:53:29.689Z,44.86
2019-03-21T04:01:35.346Z,45.73
2019-03-21T04:25:47.136Z,47.06
2019-03-21T04:28:22.007Z,46.95
2019-03-21T04:30:56.693Z,46.73
2019-03-21T04:33:31.980Z,46.37
2019-03-21T04:36:06.296Z,45.61
2019-03-21T04:38:40.979Z,45.05
2019-03-21T04:41:15.776Z,44.78
2019-03-21T04:43:50.537Z,44.51
2019-03-21T04:46:25.141Z,44.67
2019-03-21T04:49:00.648Z,44.82
2019-03-21T04:51:35.279Z,44.95
2019-03-21T04:54:09.969Z,45.04
2019-03-21T04:56:44.643Z,45.14
2019-03-21T04:59:19.242Z,45.21
2019-03-21T05:01:54.967Z,45.37
2019-03-21T05:04:29.787Z,46.44
2019-03-21T05:07:04.261Z,46.73
2019-03-21T05:09:38.791Z,46.61
2019-03-21T05:12:13.492Z,46.85
2019-03-21T05:14:48.164Z,46.84
2019-03-21T05:17:22.840Z,46.99
2019-03-21T05:19:58.349Z,47.19
2019-03-21T05:22:35.553Z,47.13
2019-03-21T05:25:11.951Z,47.36
2019-03-21T05:27:46.552Z,47.58
2019-03-21T05:30:27.771Z,47.79
2019-03-21T05:33:02.554Z,47.77
2019-03-21T05:35:37.752Z,47.66
2019-03-21T05:38:13.545Z,47.63
2019-03-21T05:40:48.241Z,47.60
2019-03-21T05:43:29.473Z,47.42
2019-03-21T05:46:04.397Z,47.48
2019-03-21T05:48:40.461Z,47.49
2019-03-21T05:51:15.328Z,47.42
2019-03-21T05:53:49.814Z,47.44
2019-03-21T05:56:24.388Z,47.41
2019-03-21T05:58:58.937Z,47.32
2019-03-21T06:01:33.506Z,47.30
2019-03-21T06:04:08.159Z,47.35
2019-03-21T06:06:57.562Z,47.23
2019-03-21T06:09:32.022Z,47.18
2019-03-21T06:12:06.567Z,47.13
2019-03-21T06:14:43.123Z,47.07
2019-03-21T06:17:17.543Z,47.10
2019-03-21T06:20:04.612Z,46.98
2019-03-21T06:23:01.718Z,47.00
2019-03-21T06:25:55.407Z,46.94
2019-03-21T06:28:30.103Z,46.92
2019-03-21T06:31:04.807Z,46.89
2019-03-21T06:33:39.733Z,46.77
2019-03-21T06:36:14.427Z,46.80
2019-03-21T06:38:49.023Z,46.80
2019-03-21T06:41:23.451Z,46.93
2019-03-21T06:43:58.061Z,46.71
2019-03-21T06:46:32.665Z,46.76
2019-03-21T06:49:07.085Z,46.75
2019-03-21T06:51:41.553Z,46.45
2019-03-21T06:54:16.132Z,46.58
2019-03-21T06:56:50.753Z,46.64
2019-03-21T06:59:25.154Z,46.39
2019-03-21T07:01:59.965Z,46.38
2019-03-21T07:04:34.594Z,46.34
2019-03-21T07:07:09.078Z,46.13
2019-03-21T07:09:43.468Z,45.96
2019-03-21T07:12:18.055Z,45.88
2019-03-21T07:14:52.332Z,45.88
2019-03-21T07:17:26.936Z,45.91
2019-03-21T07:20:01.506Z,45.91
2019-03-21T07:22:38.443Z,45.64
2019-03-21T07:25:13.143Z,45.45
2019-03-21T07:27:47.712Z,45.61
2019-03-21T07:30:22.637Z,45.34
2019-03-21T07:32:56.993Z,45.49
2019-03-21T07:35:31.543Z,45.37
2019-03-21T07:38:06.015Z,45.54
2019-03-21T07:40:40.592Z,45.30
2019-03-21T07:43:15.108Z,45.36
2019-03-21T07:45:49.783Z,45.24
2019-03-21T07:48:24.289Z,45.26
2019-03-21T07:50:59.241Z,45.00
2019-03-21T07:53:33.848Z,44.92
2019-03-21T07:56:09.196Z,44.89
2019-03-21T07:58:43.736Z,44.84
2019-03-21T08:01:18.324Z,44.87
2019-03-21T08:03:52.829Z,45.17
2019-03-21T08:06:27.703Z,45.22
2019-03-21T08:09:02.133Z,44.63
2019-03-21T08:11:36.831Z,44.76
2019-03-21T08:14:11.494Z,45.04
2019-03-21T08:16:46.094Z,44.93
2019-03-21T08:19:20.551Z,45.15
2019-03-21T08:21:54.868Z,45.08
2019-03-21T08:24:29.822Z,45.08
2019-03-21T08:27:04.711Z,45.02
2019-03-21T08:29:41.288Z,44.71
2019-03-21T08:32:16.158Z,45.01
2019-03-21T08:34:50.685Z,45.26
2019-03-21T08:37:25.261Z,45.39
2019-03-21T08:39:59.848Z,45.50
2019-03-21T08:42:34.455Z,45.49
2019-03-21T08:45:10.261Z,44.73
2019-03-21T08:48:02.568Z,44.61
2019-03-21T08:50:37.223Z,43.73
2019-03-21T08:53:12.070Z,43.42
2019-03-21T08:55:46.600Z,43.00
2019-03-21T08:58:21.585Z,42.63
2019-03-21T09:00:56.051Z,42.57
2019-03-21T09:03:30.628Z,42.38
2019-03-21T09:06:05.705Z,42.33
2019-03-21T09:08:57.996Z,42.46
2019-03-21T09:11:32.597Z,41.56
2019-03-21T09:14:07.082Z,41.47
2019-03-21T09:16:41.669Z,41.15
2019-03-21T09:19:34.114Z,40.86
2019-03-21T09:22:08.914Z,40.64
2019-03-21T09:24:43.518Z,40.02
2019-03-21T09:27:18.127Z,39.79
2019-03-21T09:30:11.336Z,40.35
2019-03-21T09:32:45.814Z,40.52
2019-03-21T09:35:20.327Z,40.70
2019-03-21T09:37:54.802Z,40.92
2019-03-21T09:40:47.013Z,41.21
2019-03-21T09:43:21.798Z,41.55
2019-03-21T09:45:56.257Z,41.89
2019-03-21T09:48:30.867Z,42.05
2019-03-21T09:51:30.926Z,42.17
2019-03-21T09:54:09.220Z,42.48
2019-03-21T09:56:35.906Z,42.46
2019-03-21T09:59:10.393Z,42.51
2019-03-21T10:02:02.699Z,42.80
2019-03-21T10:04:37.596Z,42.99
2019-03-21T10:07:12.400Z,43.05
2019-03-21T10:09:47.152Z,43.05
2019-03-21T10:12:39.460Z,43.09
2019-03-21T10:15:14.246Z,43.20
2019-03-21T10:17:48.593Z,43.30
2019-03-21T10:20:23.223Z,43.33
2019-03-21T10:22:57.674Z,43.53
2019-03-21T10:25:32.488Z,43.56
2019-03-21T10:28:07.282Z,43.49
2019-03-21T10:30:43.225Z,43.62
2019-03-21T10:33:18.292Z,43.71
2019-03-21T10:35:52.965Z,43.86
2019-03-21T10:38:27.488Z,44.02
2019-03-21T10:41:01.978Z,44.07
2019-03-21T10:43:36.578Z,44.14
2019-03-21T10:46:11.471Z,44.26
2019-03-21T10:48:45.917Z,44.21
2019-03-21T10:51:21.511Z,44.23
2019-03-21T10:53:56.023Z,44.28
2019-03-21T10:56:32.629Z,44.44
2019-03-21T10:59:10.927Z,44.50
2019-03-21T11:01:46.676Z,44.59
2019-03-21T11:04:21.547Z,44.59
2019-03-21T11:07:02.305Z,44.69
2019-03-21T11:09:37.158Z,44.86
2019-03-21T11:12:11.861Z,44.97
2019-03-21T11:14:46.433Z,45.07
2019-03-21T11:17:21.055Z,45.06
2019-03-21T11:19:55.654Z,45.22
2019-03-21T11:22:30.953Z,45.26
2019-03-21T11:25:07.078Z,45.38
2019-03-21T11:27:41.779Z,45.42
2019-03-21T11:30:19.774Z,45.52
2019-03-21T11:32:54.441Z,45.68
2019-03-21T11:35:28.857Z,45.74
2019-03-21T11:38:03.601Z,45.72
2019-03-21T11:40:38.441Z,45.83
2019-03-21T11:43:20.650Z,45.91
2019-03-21T11:45:55.492Z,45.90
2019-03-21T11:48:29.919Z,45.95
2019-03-21T11:51:04.626Z,46.02
2019-03-21T11:53:39.091Z,46.02
2019-03-21T11:56:13.925Z,46.18
2019-03-21T11:58:48.459Z,46.32
2019-03-21T12:01:23.202Z,46.36
2019-03-21T12:03:57.627Z,46.25
2019-03-21T12:06:32.347Z,46.49
2019-03-21T12:09:07.702Z,46.52
2019-03-21T12:11:42.371Z,46.60
2019-03-21T12:14:16.839Z,46.64
2019-03-21T12:16:51.335Z,46.72
2019-03-21T12:19:26.821Z,46.42
2019-03-21T12:22:01.486Z,46.79
2019-03-21T12:24:35.904Z,46.87
2019-03-21T12:27:10.495Z,46.91
2019-03-21T12:29:44.977Z,46.63
2019-03-21T12:32:19.655Z,46.92
2019-03-21T12:34:54.127Z,47.07
2019-03-21T12:37:28.609Z,47.03
2019-03-21T12:40:03.085Z,47.81
2019-03-21T12:42:38.661Z,48.91
2019-03-21T12:45:13.293Z,49.91
2019-03-21T12:47:50.937Z,49.59
2019-03-21T12:50:25.707Z,49.41
2019-03-21T12:53:00.128Z,49.37
2019-03-21T12:55:34.586Z,49.43
2019-03-21T12:58:09.468Z,49.33
2019-03-21T13:00:45.482Z,49.29
2019-03-21T13:03:20.115Z,49.19
2019-03-21T13:05:54.794Z,49.15
2019-03-21T13:08:33.917Z,49.08
2019-03-21T13:11:05.823Z,49.04
2019-03-21T13:13:40.544Z,49.71
2019-03-21T13:16:16.011Z,50.06
2019-03-21T13:18:50.791Z,50.21
2019-03-21T13:21:25.870Z,50.67
2019-03-21T13:24:00.574Z,50.75
2019-03-21T13:26:35.080Z,50.73
2019-03-21T13:29:09.505Z,50.68
2019-03-21T13:31:44.090Z,50.62
2019-03-21T13:34:18.729Z,50.64
2019-03-21T13:36:53.367Z,50.76
2019-03-21T13:39:28.068Z,50.85
2019-03-21T13:42:02.527Z,50.89
2019-03-21T13:44:37.105Z,50.93
2019-03-21T13:47:11.759Z,50.14
2019-03-21T13:49:46.236Z,50.91
2019-03-21T13:52:20.779Z,50.89
2019-03-21T13:54:55.142Z,49.80
2019-03-21T13:57:29.632Z,49.87
2019-03-21T14:00:04.029Z,50.21
2019-03-21T14:02:38.602Z,50.16
2019-03-21T14:05:13.230Z,50.48
2019-03-21T14:07:47.822Z,50.30
2019-03-21T14:10:22.648Z,50.30
2019-03-21T14:12:57.118Z,50.41
2019-03-21T14:15:31.876Z,50.47
2019-03-21T14:18:06.448Z,50.60
2019-03-21T14:20:41.766Z,50.64
2019-03-21T14:23:17.521Z,51.21
2019-03-21T14:25:53.370Z,51.12
2019-03-21T14:28:27.799Z,51.43
2019-03-21T14:31:02.592Z,51.49
2019-03-21T14:33:37.068Z,51.61
2019-03-21T14:36:11.967Z,51.63
2019-03-21T14:38:46.355Z,51.66
2019-03-21T14:41:20.935Z,51.66
2019-03-21T14:43:57.619Z,51.71
2019-03-21T14:46:32.174Z,51.75
2019-03-21T14:49:06.485Z,51.71
2019-03-21T14:51:41.002Z,51.74
2019-03-21T14:54:15.120Z,51.75
2019-03-21T14:56:49.358Z,51.73
2019-03-21T14:59:23.625Z,51.71
2019-03-21T15:01:58.197Z,51.73
2019-03-21T15:04:32.630Z,51.76
2019-03-21T15:07:07.051Z,51.79
2019-03-21T15:09:41.523Z,51.31
2019-03-21T15:12:15.984Z,51.15
2019-03-21T15:14:50.387Z,51.16
2019-03-21T15:17:24.775Z,51.10
2019-03-21T15:19:59.131Z,50.92
2019-03-21T15:22:33.827Z,50.89
2019-03-21T15:25:08.993Z,51.00
2019-03-21T15:27:43.563Z,51.00
2019-03-21T15:30:20.096Z,51.06
2019-03-21T15:32:54.782Z,51.00
2019-03-21T15:35:29.273Z,51.04
2019-03-21T15:38:03.948Z,51.22
2019-03-21T15:40:38.670Z,51.12
2019-03-21T15:43:13.102Z,51.06
2019-03-21T15:45:47.701Z,51.16
2019-03-21T15:48:22.165Z,51.27
2019-03-21T15:51:04.412Z,51.28
2019-03-21T15:53:33.444Z,51.30
2019-03-21T15:56:08.652Z,51.25
2019-03-21T15:58:43.323Z,51.44
2019-03-21T16:01:17.756Z,50.67
2019-03-21T16:03:52.483Z,49.96
2019-03-21T16:06:27.003Z,50.18
2019-03-21T16:09:01.463Z,50.61
2019-03-21T16:11:37.595Z,51.33
2019-03-21T16:14:12.860Z,51.22
2019-03-21T16:16:47.336Z,51.14
2019-03-21T16:19:21.884Z,50.98
2019-03-21T16:21:56.423Z,50.99
2019-03-21T16:24:31.143Z,50.83
2019-03-21T16:27:05.611Z,50.60
2019-03-21T16:29:39.892Z,50.52
2019-03-21T16:32:14.562Z,50.45
2019-03-21T16:34:49.053Z,50.39
2019-03-21T16:37:23.402Z,50.35
2019-03-21T16:39:57.835Z,50.09
2019-03-21T16:42:32.480Z,50.20
2019-03-21T16:45:07.668Z,50.22
2019-03-21T16:47:42.113Z,50.16
2019-03-21T16:50:17.027Z,50.09
2019-03-21T16:52:51.383Z,50.07
2019-03-21T16:55:26.173Z,50.05
2019-03-21T16:58:00.575Z,49.93
2019-03-21T17:00:34.982Z,49.90
2019-03-21T17:03:09.669Z,49.86
2019-03-21T17:05:44.062Z,49.83
2019-03-21T17:08:18.597Z,49.75
2019-03-21T17:10:53.271Z,49.69
2019-03-21T17:13:28.188Z,49.63
2019-03-21T17:16:05.508Z,49.62
2019-03-21T17:18:38.945Z,49.61
2019-03-21T17:21:14.471Z,49.52
2019-03-21T17:23:49.097Z,49.41
2019-03-21T17:26:23.648Z,49.37
2019-03-21T17:28:58.205Z,49.30
2019-03-21T17:31:32.768Z,49.17
2019-03-21T17:34:07.486Z,49.25
2019-03-21T17:36:42.848Z,49.22
2019-03-21T17:39:17.400Z,49.17
2019-03-21T17:41:51.880Z,49.10
2019-03-21T17:44:26.546Z,48.91
2019-03-21T17:47:01.033Z,48.78
2019-03-21T17:49:35.243Z,48.60
2019-03-21T17:52:09.737Z,48.58
2019-03-21T17:54:44.328Z,48.52
2019-03-21T17:57:18.859Z,48.47
2019-03-21T17:59:53.346Z,48.36
2019-03-21T18:02:27.950Z,48.24
2019-03-21T18:05:02.513Z,48.08
2019-03-21T18:07:38.269Z,47.95
2019-03-21T18:10:25.722Z,47.80
2019-03-21T18:13:00.210Z,47.69
2019-03-21T18:15:34.690Z,47.53
2019-03-21T18:18:09.187Z,47.34
2019-03-21T18:20:43.533Z,47.19
2019-03-21T18:23:18.230Z,47.00
2019-03-21T18:25:52.679Z,46.89
2019-03-21T18:28:28.341Z,46.66
2019-03-21T18:31:02.901Z,46.53
2019-03-21T18:33:37.613Z,46.43
2019-03-21T18:36:12.174Z,46.36
2019-03-21T18:38:57.403Z,46.19
2019-03-21T18:41:23.256Z,46.27
2019-03-21T18:43:57.935Z,46.34
2019-03-21T18:46:32.596Z,46.33
2019-03-21T18:49:08.065Z,46.36
2019-03-21T18:51:42.421Z,46.41
2019-03-21T18:54:16.996Z,46.40
2019-03-21T18:56:51.678Z,46.35
2019-03-21T18:59:27.243Z,46.36
2019-03-21T19:02:02.100Z,46.36
2019-03-21T19:04:36.866Z,46.29
2019-03-21T19:07:11.335Z,46.14
2019-03-21T19:09:45.955Z,46.05
2019-03-21T19:12:20.433Z,45.99
2019-03-21T19:14:55.148Z,46.30
2019-03-21T19:17:29.686Z,46.44
2019-03-21T19:20:04.022Z,46.39
2019-03-21T19:22:38.685Z,46.42
2019-03-21T19:25:18.440Z,46.38
2019-03-21T19:27:49.640Z,46.37
2019-03-21T19:30:25.208Z,46.14
2019-03-21T19:33:00.080Z,46.05
2019-03-21T19:35:34.923Z,45.88
2019-03-21T19:38:09.391Z,45.81
2019-03-21T19:40:44.182Z,45.76
2019-03-21T19:43:18.503Z,45.67
2019-03-21T19:45:52.951Z,45.51
2019-03-21T19:48:27.353Z,45.45
2019-03-21T19:51:01.905Z,45.30
2019-03-21T19:53:36.599Z,45.24
2019-03-21T19:56:11.169Z,45.16
2019-03-21T19:58:45.724Z,45.16
2019-03-21T20:01:20.474Z,45.16
2019-03-21T20:03:55.073Z,45.10
2019-03-21T20:06:29.529Z,45.12
2019-03-21T20:09:03.903Z,45.18
2019-03-21T20:11:38.348Z,45.12
2019-03-21T20:14:13.011Z,45.17
2019-03-21T20:16:47.389Z,45.18
2019-03-21T20:19:22.980Z,45.12
2019-03-21T20:21:57.866Z,45.25
2019-03-21T20:24:32.332Z,45.26
2019-03-21T20:27:09.809Z,45.23
2019-03-21T20:29:43.547Z,45.16
2019-03-21T20:32:20.713Z,45.13
2019-03-21T20:34:54.917Z,45.04
2019-03-21T20:37:29.400Z,45.01
2019-03-21T20:40:03.951Z,44.98
2019-03-21T20:42:38.694Z,44.94
2019-03-21T20:45:14.425Z,44.84
2019-03-21T20:47:49.403Z,44.80
2019-03-21T20:50:23.735Z,44.66
2019-03-21T20:52:58.326Z,44.73
2019-03-21T20:55:33.073Z,44.70
2019-03-21T20:58:07.510Z,44.65
2019-03-21T21:00:41.983Z,44.60
2019-03-21T21:04:55.662Z,44.53
2019-03-21T21:07:52.983Z,44.45
